sensor_id;sensor_type;location;lat;lon;timestamp;pressure;altitude;pressure_sealevel;temperature;humidity
47913;BME280;33676;51.006;17.180;2023-04-08T00:01:47;100396.55;;;6.34;100.00
47913;BME280;33676;51.006;17.180;2023-04-08T00:04:15;100397.73;;;6.35;100.00
47913;BME280;33676;51.006;17.180;2023-04-08T00:06:44;100396.63;;;6.35;100.00
47913;BME280;33676;51.006;17.180;2023-04-08T00:09:12;100397.63;;;6.36;100.00
47913;BME280;33676;51.006;17.180;2023-04-08T00:11:41;100397.93;;;6.37;100.00
47913;BME280;33676;51.006;17.180;2023-04-08T00:14:09;100400.03;;;6.37;100.00
47913;BME280;33676;51.006;17.180;2023-04-08T00:16:38;100391.73;;;6.36;100.00
47913;BME280;33676;51.006;17.180;2023-04-08T00:19:06;100392.01;;;6.34;100.00
47913;BME280;33676;51.006;17.180;2023-04-08T00:21:34;100394.18;;;6.33;100.00
47913;BME280;33676;51.006;17.180;2023-04-08T00:24:03;100403.79;;;6.31;100.00
47913;BME280;33676;51.006;17.180;2023-04-08T00:26:32;100403.86;;;6.30;100.00
47913;BME280;33676;51.006;17.180;2023-04-08T00:29:00;100401.45;;;6.30;100.00
47913;BME280;33676;51.006;17.180;2023-04-08T00:31:28;100404.73;;;6.30;100.00
47913;BME280;33676;51.006;17.180;2023-04-08T00:33:57;100402.48;;;6.30;100.00
47913;BME280;33676;51.006;17.180;2023-04-08T00:36:26;100401.20;;;6.31;100.00
47913;BME280;33676;51.006;17.180;2023-04-08T00:38:54;100400.35;;;6.31;100.00
47913;BME280;33676;51.006;17.180;2023-04-08T00:41:23;100409.27;;;6.33;100.00
47913;BME280;33676;51.006;17.180;2023-04-08T00:43:53;100409.54;;;6.34;100.00
47913;BME280;33676;51.006;17.180;2023-04-08T00:46:22;100412.41;;;6.36;100.00
47913;BME280;33676;51.006;17.180;2023-04-08T00:48:50;100416.89;;;6.36;100.00
47913;BME280;33676;51.006;17.180;2023-04-08T00:51:19;100421.36;;;6.37;100.00
47913;BME280;33676;51.006;17.180;2023-04-08T00:53:48;100416.86;;;6.37;100.00
47913;BME280;33676;51.006;17.180;2023-04-08T00:56:16;100418.72;;;6.38;100.00
47913;BME280;33676;51.006;17.180;2023-04-08T00:58:45;100417.95;;;6.39;100.00
47913;BME280;33676;51.006;17.180;2023-04-08T01:01:33;100417.46;;;6.42;100.00
47913;BME280;33676;51.006;17.180;2023-04-08T01:07:17;100423.16;;;6.45;100.00
47913;BME280;33676;51.006;17.180;2023-04-08T01:09:52;100426.64;;;6.45;100.00
47913;BME280;33676;51.006;17.180;2023-04-08T01:12:26;100427.31;;;6.45;100.00
47913;BME280;33676;51.006;17.180;2023-04-08T01:15:05;100428.75;;;6.47;100.00
47913;BME280;33676;51.006;17.180;2023-04-08T01:17:36;100434.52;;;6.49;100.00
47913;BME280;33676;51.006;17.180;2023-04-08T01:20:06;100432.59;;;6.50;100.00
47913;BME280;33676;51.006;17.180;2023-04-08T01:25:33;100432.90;;;6.50;100.00
47913;BME280;33676;51.006;17.180;2023-04-08T01:28:11;100438.13;;;6.50;100.00
47913;BME280;33676;51.006;17.180;2023-04-08T01:30:41;100439.41;;;6.49;100.00
47913;BME280;33676;51.006;17.180;2023-04-08T01:33:12;100442.08;;;6.48;100.00
47913;BME280;33676;51.006;17.180;2023-04-08T01:35:43;100439.19;;;6.47;100.00
47913;BME280;33676;51.006;17.180;2023-04-08T01:38:16;100443.27;;;6.45;100.00
47913;BME280;33676;51.006;17.180;2023-04-08T01:40:46;100443.17;;;6.41;100.00
47913;BME280;33676;51.006;17.180;2023-04-08T01:43:16;100444.33;;;6.36;100.00
47913;BME280;33676;51.006;17.180;2023-04-08T01:45:47;100446.06;;;6.30;100.00
47913;BME280;33676;51.006;17.180;2023-04-08T01:48:17;100446.81;;;6.23;100.00
47913;BME280;33676;51.006;17.180;2023-04-08T01:50:46;100452.02;;;6.18;100.00
47913;BME280;33676;51.006;17.180;2023-04-08T01:53:15;100455.22;;;6.13;100.00
47913;BME280;33676;51.006;17.180;2023-04-08T01:55:44;100456.16;;;6.09;100.00
47913;BME280;33676;51.006;17.180;2023-04-08T01:58:19;100459.55;;;6.04;100.00
47913;BME280;33676;51.006;17.180;2023-04-08T02:00:48;100459.23;;;6.01;100.00
47913;BME280;33676;51.006;17.180;2023-04-08T02:03:21;100466.58;;;5.96;100.00
47913;BME280;33676;51.006;17.180;2023-04-08T02:05:51;100469.38;;;5.93;100.00
47913;BME280;33676;51.006;17.180;2023-04-08T02:08:20;100468.16;;;5.89;100.00
47913;BME280;33676;51.006;17.180;2023-04-08T02:10:48;100474.05;;;5.86;100.00
47913;BME280;33676;51.006;17.180;2023-04-08T02:13:17;100474.72;;;5.83;100.00
47913;BME280;33676;51.006;17.180;2023-04-08T02:15:51;100480.60;;;5.81;100.00
47913;BME280;33676;51.006;17.180;2023-04-08T02:18:25;100479.69;;;5.78;100.00
47913;BME280;33676;51.006;17.180;2023-04-08T02:21:12;100482.92;;;5.76;100.00
47913;BME280;33676;51.006;17.180;2023-04-08T02:23:45;100483.79;;;5.73;100.00
47913;BME280;33676;51.006;17.180;2023-04-08T02:26:16;100485.70;;;5.71;100.00
47913;BME280;33676;51.006;17.180;2023-04-08T02:28:48;100485.80;;;5.69;100.00
47913;BME280;33676;51.006;17.180;2023-04-08T02:31:18;100490.80;;;5.66;100.00
47913;BME280;33676;51.006;17.180;2023-04-08T02:33:48;100487.98;;;5.63;100.00
47913;BME280;33676;51.006;17.180;2023-04-08T02:36:18;100489.61;;;5.62;100.00
47913;BME280;33676;51.006;17.180;2023-04-08T02:38:48;100492.29;;;5.60;100.00
47913;BME280;33676;51.006;17.180;2023-04-08T02:41:17;100491.48;;;5.59;100.00
47913;BME280;33676;51.006;17.180;2023-04-08T02:43:46;100493.63;;;5.58;100.00
47913;BME280;33676;51.006;17.180;2023-04-08T02:46:15;100494.77;;;5.56;100.00
47913;BME280;33676;51.006;17.180;2023-04-08T02:48:43;100500.42;;;5.55;100.00
47913;BME280;33676;51.006;17.180;2023-04-08T02:51:12;100503.83;;;5.52;100.00
47913;BME280;33676;51.006;17.180;2023-04-08T02:53:40;100507.98;;;5.53;100.00
47913;BME280;33676;51.006;17.180;2023-04-08T02:56:09;100508.14;;;5.53;100.00
47913;BME280;33676;51.006;17.180;2023-04-08T02:58:41;100513.17;;;5.53;100.00
47913;BME280;33676;51.006;17.180;2023-04-08T03:01:10;100517.33;;;5.53;100.00
47913;BME280;33676;51.006;17.180;2023-04-08T03:03:39;100514.93;;;5.52;100.00
47913;BME280;33676;51.006;17.180;2023-04-08T03:06:07;100520.30;;;5.53;100.00
47913;BME280;33676;51.006;17.180;2023-04-08T03:08:36;100523.90;;;5.50;100.00
47913;BME280;33676;51.006;17.180;2023-04-08T03:11:04;100522.36;;;5.50;100.00
47913;BME280;33676;51.006;17.180;2023-04-08T03:13:33;100520.86;;;5.49;100.00
47913;BME280;33676;51.006;17.180;2023-04-08T03:16:02;100517.83;;;5.47;100.00
47913;BME280;33676;51.006;17.180;2023-04-08T03:18:32;100524.14;;;5.46;100.00
47913;BME280;33676;51.006;17.180;2023-04-08T03:21:00;100527.06;;;5.43;100.00
47913;BME280;33676;51.006;17.180;2023-04-08T03:23:30;100532.14;;;5.42;100.00
47913;BME280;33676;51.006;17.180;2023-04-08T03:25:58;100531.46;;;5.42;100.00
47913;BME280;33676;51.006;17.180;2023-04-08T03:28:27;100530.39;;;5.39;100.00
47913;BME280;33676;51.006;17.180;2023-04-08T03:30:55;100533.23;;;5.37;100.00
47913;BME280;33676;51.006;17.180;2023-04-08T03:33:24;100538.59;;;5.34;100.00
47913;BME280;33676;51.006;17.180;2023-04-08T03:35:53;100544.80;;;5.31;100.00
47913;BME280;33676;51.006;17.180;2023-04-08T03:38:22;100548.23;;;5.29;100.00
47913;BME280;33676;51.006;17.180;2023-04-08T03:40:50;100547.90;;;5.29;100.00
47913;BME280;33676;51.006;17.180;2023-04-08T03:43:19;100550.33;;;5.28;100.00
47913;BME280;33676;51.006;17.180;2023-04-08T03:45:49;100553.98;;;5.28;100.00
47913;BME280;33676;51.006;17.180;2023-04-08T03:48:17;100556.83;;;5.27;100.00
47913;BME280;33676;51.006;17.180;2023-04-08T03:50:46;100560.15;;;5.26;100.00
47913;BME280;33676;51.006;17.180;2023-04-08T03:53:15;100560.83;;;5.27;100.00
47913;BME280;33676;51.006;17.180;2023-04-08T03:55:43;100561.52;;;5.27;100.00
47913;BME280;33676;51.006;17.180;2023-04-08T03:58:12;100561.69;;;5.27;100.00
47913;BME280;33676;51.006;17.180;2023-04-08T04:00:40;100565.61;;;5.24;100.00
47913;BME280;33676;51.006;17.180;2023-04-08T04:03:09;100569.48;;;5.23;100.00
47913;BME280;33676;51.006;17.180;2023-04-08T04:05:40;100575.14;;;5.25;100.00
47913;BME280;33676;51.006;17.180;2023-04-08T04:08:08;100577.75;;;5.24;100.00
47913;BME280;33676;51.006;17.180;2023-04-08T04:12:27;100579.61;;;5.25;100.00
47913;BME280;33676;51.006;17.180;2023-04-08T04:14:55;100585.81;;;5.23;100.00
47913;BME280;33676;51.006;17.180;2023-04-08T04:17:24;100584.80;;;5.22;100.00
47913;BME280;33676;51.006;17.180;2023-04-08T04:19:52;100586.64;;;5.20;100.00
47913;BME280;33676;51.006;17.180;2023-04-08T04:22:21;100591.38;;;5.19;100.00
47913;BME280;33676;51.006;17.180;2023-04-08T04:24:50;100597.52;;;5.18;100.00
47913;BME280;33676;51.006;17.180;2023-04-08T04:27:18;100600.20;;;5.16;100.00
47913;BME280;33676;51.006;17.180;2023-04-08T04:29:47;100605.66;;;5.15;100.00
47913;BME280;33676;51.006;17.180;2023-04-08T04:32:15;100611.80;;;5.13;100.00
47913;BME280;33676;51.006;17.180;2023-04-08T04:34:44;100614.97;;;5.12;100.00
47913;BME280;33676;51.006;17.180;2023-04-08T04:37:12;100618.19;;;5.10;100.00
47913;BME280;33676;51.006;17.180;2023-04-08T04:39:41;100617.73;;;5.09;100.00
47913;BME280;33676;51.006;17.180;2023-04-08T04:42:09;100621.41;;;5.08;100.00
47913;BME280;33676;51.006;17.180;2023-04-08T04:44:38;100626.33;;;5.07;100.00
47913;BME280;33676;51.006;17.180;2023-04-08T04:47:08;100624.95;;;5.07;100.00
47913;BME280;33676;51.006;17.180;2023-04-08T04:49:37;100628.41;;;5.07;100.00
47913;BME280;33676;51.006;17.180;2023-04-08T04:52:07;100635.13;;;5.07;100.00
47913;BME280;33676;51.006;17.180;2023-04-08T04:54:36;100636.52;;;5.08;100.00
47913;BME280;33676;51.006;17.180;2023-04-08T04:57:05;100633.54;;;5.08;100.00
47913;BME280;33676;51.006;17.180;2023-04-08T04:59:33;100639.74;;;5.09;100.00
47913;BME280;33676;51.006;17.180;2023-04-08T05:02:02;100638.23;;;5.08;100.00
47913;BME280;33676;51.006;17.180;2023-04-08T05:04:32;100639.88;;;5.10;100.00
47913;BME280;33676;51.006;17.180;2023-04-08T05:07:00;100641.92;;;5.10;100.00
47913;BME280;33676;51.006;17.180;2023-04-08T05:09:29;100649.36;;;5.10;100.00
47913;BME280;33676;51.006;17.180;2023-04-08T05:11:57;100650.77;;;5.10;100.00
47913;BME280;33676;51.006;17.180;2023-04-08T05:14:28;100658.90;;;5.10;100.00
47913;BME280;33676;51.006;17.180;2023-04-08T05:16:58;100665.00;;;5.10;100.00
47913;BME280;33676;51.006;17.180;2023-04-08T05:19:26;100668.45;;;5.10;100.00
47913;BME280;33676;51.006;17.180;2023-04-08T05:21:55;100671.36;;;5.07;100.00
47913;BME280;33676;51.006;17.180;2023-04-08T05:24:23;100670.91;;;5.06;100.00
47913;BME280;33676;51.006;17.180;2023-04-08T05:26:51;100677.10;;;5.03;100.00
47913;BME280;33676;51.006;17.180;2023-04-08T05:29:20;100682.63;;;5.03;100.00
47913;BME280;33676;51.006;17.180;2023-04-08T05:31:50;100690.73;;;5.04;100.00
47913;BME280;33676;51.006;17.180;2023-04-08T05:34:18;100692.59;;;5.05;100.00
47913;BME280;33676;51.006;17.180;2023-04-08T05:36:50;100699.31;;;5.06;100.00
47913;BME280;33676;51.006;17.180;2023-04-08T05:39:20;100692.73;;;5.06;100.00
47913;BME280;33676;51.006;17.180;2023-04-08T05:41:48;100694.08;;;5.07;100.00
47913;BME280;33676;51.006;17.180;2023-04-08T05:44:17;100691.46;;;5.07;100.00
47913;BME280;33676;51.006;17.180;2023-04-08T05:46:45;100695.13;;;5.06;100.00
47913;BME280;33676;51.006;17.180;2023-04-08T05:49:14;100696.50;;;5.07;100.00
47913;BME280;33676;51.006;17.180;2023-04-08T05:51:44;100695.05;;;5.08;100.00
47913;BME280;33676;51.006;17.180;2023-04-08T05:54:13;100700.65;;;5.11;100.00
47913;BME280;33676;51.006;17.180;2023-04-08T05:56:41;100696.56;;;5.13;100.00
47913;BME280;33676;51.006;17.180;2023-04-08T05:59:10;100699.55;;;5.15;100.00
47913;BME280;33676;51.006;17.180;2023-04-08T06:01:38;100701.02;;;5.17;100.00
47913;BME280;33676;51.006;17.180;2023-04-08T06:04:07;100705.02;;;5.17;100.00
47913;BME280;33676;51.006;17.180;2023-04-08T06:06:38;100709.20;;;5.20;100.00
47913;BME280;33676;51.006;17.180;2023-04-08T06:09:08;100711.70;;;5.21;100.00
47913;BME280;33676;51.006;17.180;2023-04-08T06:11:37;100715.11;;;5.22;100.00
47913;BME280;33676;51.006;17.180;2023-04-08T06:14:05;100712.33;;;5.23;100.00
47913;BME280;33676;51.006;17.180;2023-04-08T06:16:34;100714.81;;;5.25;100.00
47913;BME280;33676;51.006;17.180;2023-04-08T06:19:02;100719.50;;;5.28;100.00
47913;BME280;33676;51.006;17.180;2023-04-08T06:21:31;100724.31;;;5.33;100.00
47913;BME280;33676;51.006;17.180;2023-04-08T06:23:59;100729.42;;;5.38;100.00
47913;BME280;33676;51.006;17.180;2023-04-08T06:26:28;100731.77;;;5.47;100.00
47913;BME280;33676;51.006;17.180;2023-04-08T06:28:56;100736.31;;;5.57;100.00
47913;BME280;33676;51.006;17.180;2023-04-08T06:31:25;100741.25;;;5.65;100.00
47913;BME280;33676;51.006;17.180;2023-04-08T06:33:54;100744.82;;;5.74;100.00
47913;BME280;33676;51.006;17.180;2023-04-08T06:36:23;100744.95;;;5.81;99.87
47913;BME280;33676;51.006;17.180;2023-04-08T06:38:52;100753.04;;;5.89;99.50
47913;BME280;33676;51.006;17.180;2023-04-08T06:41:21;100757.27;;;5.95;99.11
47913;BME280;33676;51.006;17.180;2023-04-08T06:43:50;100754.69;;;6.02;98.91
47913;BME280;33676;51.006;17.180;2023-04-08T06:46:18;100760.48;;;6.11;98.78
47913;BME280;33676;51.006;17.180;2023-04-08T06:48:46;100761.21;;;6.20;98.63
47913;BME280;33676;51.006;17.180;2023-04-08T06:51:15;100763.79;;;6.30;98.55
47913;BME280;33676;51.006;17.180;2023-04-08T06:53:44;100766.52;;;6.37;97.94
47913;BME280;33676;51.006;17.180;2023-04-08T06:56:12;100773.77;;;6.45;97.71
47913;BME280;33676;51.006;17.180;2023-04-08T06:58:40;100774.43;;;6.52;97.60
47913;BME280;33676;51.006;17.180;2023-04-08T07:01:09;100775.05;;;6.60;97.46
47913;BME280;33676;51.006;17.180;2023-04-08T07:03:38;100774.05;;;6.69;97.44
47913;BME280;33676;51.006;17.180;2023-04-08T07:06:07;100777.86;;;6.78;97.28
47913;BME280;33676;51.006;17.180;2023-04-08T07:08:35;100778.90;;;6.85;96.92
47913;BME280;33676;51.006;17.180;2023-04-08T07:11:04;100781.70;;;6.91;96.65
47913;BME280;33676;51.006;17.180;2023-04-08T07:13:33;100786.44;;;6.93;95.92
47913;BME280;33676;51.006;17.180;2023-04-08T07:16:02;100790.39;;;6.97;95.87
47913;BME280;33676;51.006;17.180;2023-04-08T07:18:31;100794.83;;;7.02;96.05
47913;BME280;33676;51.006;17.180;2023-04-08T07:21:00;100796.70;;;7.09;95.92
47913;BME280;33676;51.006;17.180;2023-04-08T07:23:29;100799.30;;;7.18;95.58
47913;BME280;33676;51.006;17.180;2023-04-08T07:26:02;100799.83;;;7.24;95.42
47913;BME280;33676;51.006;17.180;2023-04-08T07:28:32;100805.77;;;7.33;95.16
47913;BME280;33676;51.006;17.180;2023-04-08T07:31:14;100807.77;;;7.41;95.08
47913;BME280;33676;51.006;17.180;2023-04-08T07:33:44;100812.19;;;7.49;94.51
47913;BME280;33676;51.006;17.180;2023-04-08T07:36:14;100813.54;;;7.55;94.33
47913;BME280;33676;51.006;17.180;2023-04-08T07:38:43;100813.73;;;7.64;94.25
47913;BME280;33676;51.006;17.180;2023-04-08T07:41:12;100816.55;;;7.73;94.23
47913;BME280;33676;51.006;17.180;2023-04-08T07:43:41;100818.64;;;7.81;94.05
47913;BME280;33676;51.006;17.180;2023-04-08T07:46:09;100818.99;;;7.90;93.76
47913;BME280;33676;51.006;17.180;2023-04-08T07:48:38;100824.38;;;7.99;93.62
47913;BME280;33676;51.006;17.180;2023-04-08T07:51:08;100825.34;;;8.07;93.07
47913;BME280;33676;51.006;17.180;2023-04-08T07:53:39;100827.70;;;8.11;92.56
47913;BME280;33676;51.006;17.180;2023-04-08T07:56:12;100830.89;;;8.13;92.23
47913;BME280;33676;51.006;17.180;2023-04-08T07:58:41;100834.70;;;8.16;92.31
47913;BME280;33676;51.006;17.180;2023-04-08T08:01:33;100833.45;;;8.23;92.60
47913;BME280;33676;51.006;17.180;2023-04-08T08:04:04;100836.05;;;8.31;92.30
47913;BME280;33676;51.006;17.180;2023-04-08T08:06:34;100838.78;;;8.39;92.17
47913;BME280;33676;51.006;17.180;2023-04-08T08:09:04;100841.77;;;8.44;91.89
47913;BME280;33676;51.006;17.180;2023-04-08T08:11:33;100845.15;;;8.51;91.83
47913;BME280;33676;51.006;17.180;2023-04-08T08:14:04;100845.08;;;8.58;91.52
47913;BME280;33676;51.006;17.180;2023-04-08T08:16:34;100843.43;;;8.65;91.60
47913;BME280;33676;51.006;17.180;2023-04-08T08:19:04;100845.96;;;8.76;91.44
47913;BME280;33676;51.006;17.180;2023-04-08T08:21:37;100843.48;;;8.84;91.35
47913;BME280;33676;51.006;17.180;2023-04-08T08:24:06;100842.40;;;8.93;91.31
47913;BME280;33676;51.006;17.180;2023-04-08T08:26:35;100842.98;;;8.98;90.64
47913;BME280;33676;51.006;17.180;2023-04-08T08:29:05;100849.46;;;9.00;90.38
47913;BME280;33676;51.006;17.180;2023-04-08T08:31:35;100853.20;;;8.99;90.04
47913;BME280;33676;51.006;17.180;2023-04-08T08:34:04;100856.02;;;8.96;89.82
47913;BME280;33676;51.006;17.180;2023-04-08T08:36:33;100855.08;;;8.91;89.53
47913;BME280;33676;51.006;17.180;2023-04-08T08:39:02;100856.42;;;8.94;89.69
47913;BME280;33676;51.006;17.180;2023-04-08T08:41:33;100857.89;;;9.02;89.87
47913;BME280;33676;51.006;17.180;2023-04-08T08:44:06;100857.52;;;9.08;89.72
47913;BME280;33676;51.006;17.180;2023-04-08T08:46:35;100862.77;;;9.16;89.65
47913;BME280;33676;51.006;17.180;2023-04-08T08:49:05;100861.92;;;9.18;89.16
47913;BME280;33676;51.006;17.180;2023-04-08T08:51:34;100869.05;;;9.24;89.12
47913;BME280;33676;51.006;17.180;2023-04-08T08:54:03;100872.85;;;9.31;88.86
47913;BME280;33676;51.006;17.180;2023-04-08T08:56:32;100872.50;;;9.38;88.91
47913;BME280;33676;51.006;17.180;2023-04-08T08:59:01;100878.52;;;9.45;88.56
47913;BME280;33676;51.006;17.180;2023-04-08T09:01:36;100875.05;;;9.53;88.52
47913;BME280;33676;51.006;17.180;2023-04-08T09:04:09;100884.66;;;9.64;88.59
47913;BME280;33676;51.006;17.180;2023-04-08T09:06:40;100886.96;;;9.69;87.94
47913;BME280;33676;51.006;17.180;2023-04-08T09:09:08;100888.56;;;9.74;87.67
47913;BME280;33676;51.006;17.180;2023-04-08T09:11:43;100888.29;;;9.81;87.96
47913;BME280;33676;51.006;17.180;2023-04-08T09:14:31;100892.33;;;9.90;87.72
47913;BME280;33676;51.006;17.180;2023-04-08T09:17:00;100898.33;;;9.98;87.50
47913;BME280;33676;51.006;17.180;2023-04-08T09:19:29;100900.11;;;10.05;87.14
47913;BME280;33676;51.006;17.180;2023-04-08T09:22:09;100902.70;;;10.08;86.75
47913;BME280;33676;51.006;17.180;2023-04-08T09:24:38;100906.70;;;10.17;87.00
47913;BME280;33676;51.006;17.180;2023-04-08T09:27:07;100908.58;;;10.31;87.19
47913;BME280;33676;51.006;17.180;2023-04-08T09:29:36;100905.77;;;10.51;87.26
47913;BME280;33676;51.006;17.180;2023-04-08T09:32:07;100903.69;;;10.71;86.92
47913;BME280;33676;51.006;17.180;2023-04-08T09:34:35;100909.36;;;10.86;86.76
47913;BME280;33676;51.006;17.180;2023-04-08T09:37:11;100909.94;;;11.00;86.55
47913;BME280;33676;51.006;17.180;2023-04-08T09:39:40;100904.64;;;11.08;85.55
47913;BME280;33676;51.006;17.180;2023-04-08T09:42:12;100905.93;;;11.14;85.07
47913;BME280;33676;51.006;17.180;2023-04-08T09:44:45;100909.89;;;11.20;84.60
47913;BME280;33676;51.006;17.180;2023-04-08T09:47:21;100910.11;;;11.24;84.17
47913;BME280;33676;51.006;17.180;2023-04-08T09:50:00;100908.64;;;11.36;84.30
47913;BME280;33676;51.006;17.180;2023-04-08T09:52:46;100912.33;;;11.43;83.76
47913;BME280;33676;51.006;17.180;2023-04-08T09:55:21;100913.70;;;11.57;83.89
47913;BME280;33676;51.006;17.180;2023-04-08T09:58:02;100914.74;;;11.79;84.34
47913;BME280;33676;51.006;17.180;2023-04-08T10:00:37;100918.09;;;12.01;83.82
47913;BME280;33676;51.006;17.180;2023-04-08T10:05:52;100923.52;;;12.38;83.45
47913;BME280;33676;51.006;17.180;2023-04-08T10:08:21;100921.79;;;12.51;83.26
47913;BME280;33676;51.006;17.180;2023-04-08T10:10:50;100924.01;;;12.59;82.83
47913;BME280;33676;51.006;17.180;2023-04-08T10:13:19;100927.04;;;12.58;82.11
47913;BME280;33676;51.006;17.180;2023-04-08T10:15:48;100923.96;;;12.55;82.17
47913;BME280;33676;51.006;17.180;2023-04-08T10:20:56;100920.34;;;12.56;81.54
47913;BME280;33676;51.006;17.180;2023-04-08T10:23:56;100920.21;;;12.75;81.72
47913;BME280;33676;51.006;17.180;2023-04-08T10:26:43;100925.51;;;13.10;82.25
47913;BME280;33676;51.006;17.180;2023-04-08T10:31:46;100929.20;;;13.59;81.77
47913;BME280;33676;51.006;17.180;2023-04-08T10:34:20;100926.68;;;13.79;81.64
47913;BME280;33676;51.006;17.180;2023-04-08T10:36:50;100922.48;;;14.23;82.01
47913;BME280;33676;51.006;17.180;2023-04-08T10:39:20;100919.05;;;14.68;81.65
47913;BME280;33676;51.006;17.180;2023-04-08T10:41:49;100916.27;;;15.13;82.10
47913;BME280;33676;51.006;17.180;2023-04-08T10:44:24;100913.60;;;15.39;81.42
47913;BME280;33676;51.006;17.180;2023-04-08T10:46:54;100914.59;;;15.78;81.39
47913;BME280;33676;51.006;17.180;2023-04-08T10:49:31;100915.98;;;16.00;81.27
47913;BME280;33676;51.006;17.180;2023-04-08T10:52:06;100917.15;;;16.33;80.85
47913;BME280;33676;51.006;17.180;2023-04-08T10:54:36;100914.40;;;16.64;80.56
47913;BME280;33676;51.006;17.180;2023-04-08T10:57:05;100911.23;;;16.96;80.04
47913;BME280;33676;51.006;17.180;2023-04-08T10:59:34;100916.73;;;17.03;78.30
47913;BME280;33676;51.006;17.180;2023-04-08T11:02:04;100916.64;;;17.08;77.45
47913;BME280;33676;51.006;17.180;2023-04-08T11:04:32;100919.89;;;17.09;76.64
47913;BME280;33676;51.006;17.180;2023-04-08T11:07:04;100921.96;;;17.04;75.86
47913;BME280;33676;51.006;17.180;2023-04-08T11:09:36;100920.92;;;17.00;75.45
47913;BME280;33676;51.006;17.180;2023-04-08T11:12:04;100925.70;;;17.03;75.46
47913;BME280;33676;51.006;17.180;2023-04-08T11:14:34;100921.21;;;17.30;75.41
47913;BME280;33676;51.006;17.180;2023-04-08T11:17:02;100918.35;;;17.71;75.58
47913;BME280;33676;51.006;17.180;2023-04-08T11:19:34;100917.34;;;18.18;75.92
47913;BME280;33676;51.006;17.180;2023-04-08T11:22:04;100913.20;;;18.75;76.51
47913;BME280;33676;51.006;17.180;2023-04-08T11:24:33;100911.43;;;19.34;77.05
47913;BME280;33676;51.006;17.180;2023-04-08T11:27:04;100910.63;;;19.90;76.69
47913;BME280;33676;51.006;17.180;2023-04-08T11:29:36;100909.86;;;20.38;75.92
47913;BME280;33676;51.006;17.180;2023-04-08T11:32:06;100905.96;;;20.75;74.58
47913;BME280;33676;51.006;17.180;2023-04-08T11:34:38;100907.63;;;20.80;73.84
47913;BME280;33676;51.006;17.180;2023-04-08T11:37:07;100907.90;;;20.81;73.11
47913;BME280;33676;51.006;17.180;2023-04-08T11:39:43;100908.39;;;20.81;72.34
47913;BME280;33676;51.006;17.180;2023-04-08T11:42:28;100909.34;;;20.76;71.48
47913;BME280;33676;51.006;17.180;2023-04-08T11:57:53;100914.24;;;20.71;68.70
47913;BME280;33676;51.006;17.180;2023-04-08T12:00:22;100920.73;;;20.47;67.56
47913;BME280;33676;51.006;17.180;2023-04-08T12:02:51;100924.86;;;20.22;67.28
47913;BME280;33676;51.006;17.180;2023-04-08T12:05:20;100920.98;;;19.98;67.21
47913;BME280;33676;51.006;17.180;2023-04-08T12:07:49;100919.23;;;19.74;66.93
47913;BME280;33676;51.006;17.180;2023-04-08T12:10:17;100919.57;;;19.49;66.56
47913;BME280;33676;51.006;17.180;2023-04-08T12:12:46;100918.06;;;19.20;66.13
47913;BME280;33676;51.006;17.180;2023-04-08T12:15:14;100916.91;;;18.90;65.72
47913;BME280;33676;51.006;17.180;2023-04-08T12:17:43;100916.51;;;18.67;65.74
47913;BME280;33676;51.006;17.180;2023-04-08T12:20:12;100918.02;;;18.41;65.60
47913;BME280;33676;51.006;17.180;2023-04-08T12:22:41;100915.23;;;18.18;65.53
47913;BME280;33676;51.006;17.180;2023-04-08T12:25:10;100916.80;;;18.01;65.51
47913;BME280;33676;51.006;17.180;2023-04-08T12:27:38;100914.98;;;17.94;65.74
47913;BME280;33676;51.006;17.180;2023-04-08T12:30:08;100916.52;;;18.15;66.04
47913;BME280;33676;51.006;17.180;2023-04-08T12:32:36;100919.36;;;18.26;66.05
47913;BME280;33676;51.006;17.180;2023-04-08T12:35:05;100915.31;;;18.45;66.15
47913;BME280;33676;51.006;17.180;2023-04-08T12:37:34;100910.09;;;19.00;66.85
47913;BME280;33676;51.006;17.180;2023-04-08T12:40:03;100908.05;;;19.38;66.79
47913;BME280;33676;51.006;17.180;2023-04-08T12:42:31;100905.88;;;19.57;66.28
47913;BME280;33676;51.006;17.180;2023-04-08T12:45:00;100901.27;;;19.83;65.51
47913;BME280;33676;51.006;17.180;2023-04-08T12:47:28;100898.83;;;20.27;65.53
47913;BME280;33676;51.006;17.180;2023-04-08T12:49:57;100895.53;;;20.77;65.64
47913;BME280;33676;51.006;17.180;2023-04-08T12:52:25;100897.23;;;21.24;65.78
47913;BME280;33676;51.006;17.180;2023-04-08T12:54:54;100898.02;;;21.57;65.28
47913;BME280;33676;51.006;17.180;2023-04-08T12:57:23;100896.59;;;21.65;64.63
47913;BME280;33676;51.006;17.180;2023-04-08T12:59:51;100893.98;;;21.74;63.70
47913;BME280;33676;51.006;17.180;2023-04-08T13:02:20;100893.33;;;22.12;64.13
47913;BME280;33676;51.006;17.180;2023-04-08T13:04:49;100889.94;;;22.46;63.89
47913;BME280;33676;51.006;17.180;2023-04-08T13:07:19;100887.55;;;22.93;63.99
47913;BME280;33676;51.006;17.180;2023-04-08T13:09:47;100884.75;;;23.51;64.42
47913;BME280;33676;51.006;17.180;2023-04-08T13:12:16;100880.52;;;24.03;64.36
47913;BME280;33676;51.006;17.180;2023-04-08T13:14:44;100883.27;;;24.46;63.81
47913;BME280;33676;51.006;17.180;2023-04-08T13:17:13;100883.80;;;24.43;62.72
47913;BME280;33676;51.006;17.180;2023-04-08T13:19:42;100881.64;;;24.46;62.17
47913;BME280;33676;51.006;17.180;2023-04-08T13:22:10;100883.14;;;24.76;62.26
47913;BME280;33676;51.006;17.180;2023-04-08T13:24:38;100883.09;;;24.94;61.51
47913;BME280;33676;51.006;17.180;2023-04-08T13:27:07;100881.86;;;25.10;60.58